Time;durP1;ratioP1;P1;durP2;ratioP2;P2;SDS_P1;SDS_P2;PMS_P1;PMS_P2;Temp;Humidity;BMP_temperature;BMP_pressure;BME280_temperature;BME280_humidity;BME280_pressure;Samples;Min_cycle;Max_cycle;Signal;HPM_P1;HPM_P2
2021/12/12 00:00:48;;;;;;;34.70;16.55;;;;;;;;;;5067075;28;20440;-67
2021/12/12 00:03:32;;;;;;;32.47;15.15;;;;;;;;;;5066714;28;20020;-66
2021/12/12 00:05:59;;;;;;;36.10;16.73;;;;;;;;;;5066802;28;20021;-66
2021/12/12 00:08:26;;;;;;;32.97;14.77;;;;;;;;;;5066595;28;20062;-66
2021/12/12 00:10:57;;;;;;;40.47;15.65;;;;;;;;;;5067023;28;20035;-66
2021/12/12 00:13:25;;;;;;;36.97;17.10;;;;;;;;;;5066550;28;20021;-66
2021/12/12 00:15:51;;;;;;;39.15;16.98;;;;;;;;;;5067024;28;20016;-67
2021/12/12 00:18:17;;;;;;;30.08;14.57;;;;;;;;;;5066830;28;20029;-66
2021/12/12 00:20:44;;;;;;;34.00;14.63;;;;;;;;;;5066740;28;20451;-66
2021/12/12 00:23:10;;;;;;;35.20;15.55;;;;;;;;;;5066334;28;20036;-66
2021/12/12 00:25:39;;;;;;;30.45;14.65;;;;;;;;;;5067010;28;20392;-66
2021/12/12 00:28:05;;;;;;;34.80;15.75;;;;;;;;;;5066776;28;20051;-66
2021/12/12 00:30:32;;;;;;;34.88;15.00;;;;;;;;;;5048769;28;20047;-66
2021/12/12 00:32:58;;;;;;;30.38;13.90;;;;;;;;;;5065804;28;20778;-66
2021/12/12 00:35:24;;;;;;;28.15;13.38;;;;;;;;;;5066711;28;20369;-66
2021/12/12 00:37:51;;;;;;;28.52;14.45;;;;;;;;;;5066796;28;20032;-66
2021/12/12 00:40:22;;;;;;;32.20;13.80;;;;;;;;;;5048830;28;20048;-66
2021/12/12 00:42:48;;;;;;;32.65;15.48;;;;;;;;;;5047670;28;20078;-67
2021/12/12 00:45:16;;;;;;;34.58;14.23;;;;;;;;;;5048517;28;20374;-67
2021/12/12 00:47:43;;;;;;;34.20;16.48;;;;;;;;;;5051385;28;20078;-66
2021/12/12 00:50:11;;;;;;;33.83;15.18;;;;;;;;;;5070188;28;20037;-66
2021/12/12 00:52:37;;;;;;;;;;;;;;;;;;5069776;28;20024;-66
2021/12/12 00:55:04;;;;;;;26.83;12.90;;;;;;;;;;5069974;28;20171;-66
2021/12/12 00:57:30;;;;;;;29.80;13.93;;;;;;;;;;5068753;28;20043;-66
2021/12/12 00:59:56;;;;;;;33.88;14.35;;;;;;;;;;5073235;28;20021;-67
2021/12/12 01:02:25;;;;;;;27.13;12.40;;;;;;;;;;5072689;28;20017;-67
2021/12/12 01:04:54;;;;;;;29.92;12.50;;;;;;;;;;5073589;28;20467;-67
2021/12/12 01:07:23;;;;;;;31.38;13.15;;;;;;;;;;5073322;28;20028;-68
2021/12/12 01:09:54;;;;;;;35.80;14.15;;;;;;;;;;5073885;28;20024;-67
2021/12/12 01:12:22;;;;;;;31.75;13.25;;;;;;;;;;5072571;28;20035;-67
2021/12/12 01:14:51;;;;;;;29.42;13.55;;;;;;;;;;5073760;28;20078;-66
2021/12/12 01:17:19;;;;;;;26.35;11.23;;;;;;;;;;5073367;28;20056;-67
2021/12/12 01:19:51;;;;;;;27.90;12.77;;;;;;;;;;5079124;23;20139;-63
2021/12/12 01:22:28;;;;;;;27.92;12.40;;;;;;;;;;5094208;28;20468;-64
2021/12/12 01:24:55;;;;;;;30.67;12.85;;;;;;;;;;5094992;28;20483;-64
2021/12/12 01:27:21;;;;;;;30.50;11.90;;;;;;;;;;5095037;28;20032;-64
2021/12/12 01:29:49;;;;;;;29.15;11.20;;;;;;;;;;5076483;28;20051;-64
2021/12/12 01:32:26;;;;;;;30.23;13.77;;;;;;;;;;5093818;28;20052;-64
2021/12/12 01:34:52;;;;;;;35.75;12.45;;;;;;;;;;5092869;28;20262;-64
2021/12/12 01:39:50;;;;;;;26.20;12.45;;;;;;;;;;5094726;28;20062;-65
2021/12/12 01:42:25;;;;;;;28.75;11.48;;;;;;;;;;5093606;28;20085;-64
2021/12/12 01:44:56;;;;;;;30.80;12.75;;;;;;;;;;5094513;28;20020;-65
2021/12/12 01:47:25;;;;;;;25.92;11.20;;;;;;;;;;5076494;28;20024;-64
2021/12/12 01:49:53;;;;;;;29.05;12.98;;;;;;;;;;5094383;28;20020;-65
2021/12/12 01:52:20;;;;;;;25.60;10.63;;;;;;;;;;5093544;28;20103;-65
2021/12/12 01:54:48;;;;;;;25.63;9.95;;;;;;;;;;5075924;28;20081;-64
2021/12/12 01:57:17;;;;;;;23.90;11.35;;;;;;;;;;5094172;28;20482;-65
2021/12/12 01:59:44;;;;;;;27.60;11.65;;;;;;;;;;5074950;28;20024;-65
2021/12/12 02:02:12;;;;;;;23.25;10.27;;;;;;;;;;5075543;28;20016;-65
2021/12/12 02:04:41;;;;;;;22.42;10.60;;;;;;;;;;5075969;28;20024;-62
2021/12/12 02:07:08;;;;;;;24.20;9.25;;;;;;;;;;5075787;28;20032;-65
2021/12/12 02:09:34;;;;;;;25.25;9.63;;;;;;;;;;5093630;28;20024;-65
2021/12/12 02:12:01;;;;;;;23.02;9.00;;;;;;;;;;5093179;28;20392;-64
2021/12/12 02:14:29;;;;;;;28.92;11.68;;;;;;;;;;5075638;28;20055;-64
2021/12/12 02:16:59;;;;;;;30.02;12.77;;;;;;;;;;5093774;28;20194;-63
2021/12/12 02:19:34;;;;;;;25.92;10.80;;;;;;;;;;5075142;28;20040;-63
2021/12/12 02:22:25;;;;;;;26.75;10.23;;;;;;;;;;5092917;28;20020;-63
2021/12/12 02:35:54;;;;;;;24.13;8.65;;;;;;;;;;5093964;28;20511;-63
2021/12/12 02:38:28;;;;;;;19.50;8.35;;;;;;;;;;5093050;28;20400;-63
2021/12/12 02:40:56;;;;;;;23.27;7.90;;;;;;;;;;5075162;28;20058;-64
2021/12/12 02:43:24;;;;;;;23.98;9.27;;;;;;;;;;5092370;28;20107;-64
2021/12/12 02:45:54;;;;;;;22.83;9.23;;;;;;;;;;5093113;28;20030;-61
2021/12/12 02:48:21;;;;;;;24.42;8.98;;;;;;;;;;5093144;28;20107;-64
2021/12/12 02:50:49;;;;;;;17.42;7.30;;;;;;;;;;5093022;28;20032;-61
2021/12/12 02:53:27;;;;;;;25.90;8.43;;;;;;;;;;5092450;28;20074;-63
2021/12/12 02:55:55;;;;;;;18.15;7.55;;;;;;;;;;5074935;28;20081;-64
2021/12/12 02:58:22;;;;;;;20.27;8.02;;;;;;;;;;5092839;28;20028;-63
2021/12/12 03:01:08;;;;;;;19.33;7.47;;;;;;;;;;5093020;28;20016;-63
2021/12/12 03:03:36;;;;;;;23.50;8.18;;;;;;;;;;5092266;28;20472;-62
2021/12/12 03:06:03;;;;;;;19.20;6.93;;;;;;;;;;5092912;28;20016;-63
2021/12/12 03:08:29;;;;;;;24.17;7.40;;;;;;;;;;5092732;28;20024;-63
2021/12/12 03:10:55;;;;;;;20.95;7.15;;;;;;;;;;5091712;28;20035;-63
2021/12/12 03:13:24;;;;;;;19.42;7.10;;;;;;;;;;5092046;28;20028;-63
2021/12/12 03:15:50;;;;;;;19.30;8.60;;;;;;;;;;5074766;28;20035;-63
2021/12/12 03:18:18;;;;;;;20.35;7.80;;;;;;;;;;5092662;28;20040;-63
2021/12/12 03:20:49;;;;;;;23.50;7.65;;;;;;;;;;5074508;28;20059;-64
2021/12/12 03:23:15;;;;;;;23.55;8.48;;;;;;;;;;5073680;28;20078;-64
2021/12/12 03:25:42;;;;;;;18.38;7.22;;;;;;;;;;5092686;28;20019;-63
2021/12/12 03:28:09;;;;;;;16.65;6.78;;;;;;;;;;5074410;28;20476;-64
2021/12/12 03:30:36;;;;;;;19.63;8.00;;;;;;;;;;5092553;28;20024;-64
2021/12/12 03:33:02;;;;;;;21.08;7.95;;;;;;;;;;5073672;28;20032;-64
2021/12/12 03:35:29;;;;;;;25.35;7.93;;;;;;;;;;5074763;28;20031;-64
2021/12/12 03:37:55;;;;;;;17.95;6.60;;;;;;;;;;5092320;28;20468;-64
2021/12/12 03:40:26;;;;;;;17.17;6.50;;;;;;;;;;5074555;28;20027;-64
2021/12/12 03:42:53;;;;;;;20.88;7.32;;;;;;;;;;5091634;28;20020;-64
2021/12/12 03:45:20;;;;;;;21.45;7.30;;;;;;;;;;5074292;28;20031;-65
2021/12/12 03:47:51;;;;;;;18.77;7.45;;;;;;;;;;5092138;28;20032;-64
2021/12/12 03:50:21;;;;;;;19.92;7.13;;;;;;;;;;5092600;28;20422;-64
2021/12/12 03:52:47;;;;;;;24.90;7.97;;;;;;;;;;5091577;28;20024;-64
2021/12/12 03:55:13;;;;;;;21.55;8.07;;;;;;;;;;5092200;28;20095;-64
2021/12/12 03:57:39;;;;;;;20.27;8.73;;;;;;;;;;5091999;28;20025;-64
2021/12/12 04:00:08;;;;;;;19.58;7.63;;;;;;;;;;5091904;28;20031;-64
2021/12/12 04:02:35;;;;;;;20.40;7.90;;;;;;;;;;5073247;28;20056;-64
2021/12/12 04:05:01;;;;;;;19.15;8.27;;;;;;;;;;5074285;28;20480;-64
2021/12/12 04:07:28;;;;;;;18.20;7.28;;;;;;;;;;5092250;28;20020;-64
2021/12/12 04:09:55;;;;;;;21.35;8.63;;;;;;;;;;5073995;28;20073;-65
2021/12/12 04:12:22;;;;;;;21.30;8.30;;;;;;;;;;5073296;28;20403;-65
2021/12/12 04:14:48;;;;;;;21.05;7.68;;;;;;;;;;5074242;28;20437;-64
2021/12/12 04:17:16;;;;;;;20.60;8.02;;;;;;;;;;5091783;28;20024;-65
2021/12/12 04:19:44;;;;;;;19.97;8.23;;;;;;;;;;5073746;28;20630;-64
2021/12/12 04:22:10;;;;;;;19.67;9.18;;;;;;;;;;5093395;28;20039;-64
2021/12/12 04:24:38;;;;;;;20.90;8.05;;;;;;;;;;5096149;28;20701;-64
2021/12/12 04:27:05;;;;;;;19.23;8.10;;;;;;;;;;5095745;28;20020;-64
2021/12/12 04:29:36;;;;;;;24.85;8.45;;;;;;;;;;5095768;28;20051;-65
2021/12/12 04:32:04;;;;;;;21.60;8.27;;;;;;;;;;5095011;28;20028;-64
2021/12/12 04:34:32;;;;;;;17.90;7.63;;;;;;;;;;5077459;28;20016;-65
2021/12/12 04:37:00;;;;;;;18.35;9.23;;;;;;;;;;5077330;28;20032;-64
2021/12/12 04:39:31;;;;;;;29.58;7.68;;;;;;;;;;5095518;28;20044;-64
2021/12/12 04:42:24;;;;;;;15.75;7.35;;;;;;;;;;5094722;28;20024;-65
2021/12/12 04:44:51;;;;;;;17.00;7.47;;;;;;;;;;5092138;28;20115;-65
2021/12/12 04:50:41;;;;;;;19.90;7.78;;;;;;;;;;5095752;28;20039;-64
2021/12/12 04:53:17;;;;;;;22.30;9.20;;;;;;;;;;5059821;28;20036;-64
2021/12/12 04:55:52;;;;;;;28.65;9.20;;;;;;;;;;5095469;28;20107;-64
2021/12/12 04:58:18;;;;;;;21.27;7.78;;;;;;;;;;5076918;28;20105;-64
2021/12/12 05:00:52;;;;;;;38.42;17.80;;;;;;;;;;5095162;28;20020;-64
2021/12/12 05:03:27;;;;;;;24.08;9.45;;;;;;;;;;5094287;28;20433;-64
2021/12/12 05:06:11;;;;;;;22.90;8.85;;;;;;;;;;5095143;28;20028;-65
2021/12/12 05:08:55;;;;;;;25.25;7.60;;;;;;;;;;5076726;28;20031;-64
2021/12/12 05:11:27;;;;;;;20.00;6.95;;;;;;;;;;5094943;28;20024;-64
2021/12/12 05:13:55;;;;;;;20.08;7.28;;;;;;;;;;5094474;28;20503;-65
2021/12/12 05:16:24;;;;;;;24.83;8.85;;;;;;;;;;5095239;28;20388;-64
2021/12/12 05:18:52;;;;;;;17.42;7.20;;;;;;;;;;5076440;28;20461;-64
2021/12/12 05:21:28;;;;;;;20.50;7.45;;;;;;;;;;5076724;28;20020;-65
2021/12/12 05:23:57;;;;;;;18.05;7.45;;;;;;;;;;5076070;28;20024;-64
2021/12/12 05:26:27;;;;;;;20.52;7.88;;;;;;;;;;5094675;28;20104;-64
2021/12/12 05:29:01;;;;;;;32.20;9.45;;;;;;;;;;5075964;28;20031;-64
2021/12/12 05:31:28;;;;;;;18.33;7.68;;;;;;;;;;5094121;28;20483;-63
2021/12/12 05:33:55;;;;;;;20.90;7.93;;;;;;;;;;5092940;28;20020;-64
2021/12/12 05:36:21;;;;;;;20.42;7.75;;;;;;;;;;5094478;28;20422;-64
2021/12/12 05:38:48;;;;;;;21.88;7.47;;;;;;;;;;5076124;28;20051;-64
2021/12/12 05:41:18;;;;;;;19.00;7.30;;;;;;;;;;5094405;28;20106;-64
2021/12/12 05:43:44;;;;;;;19.00;7.55;;;;;;;;;;5093641;28;20023;-63
2021/12/12 05:46:15;;;;;;;21.00;7.82;;;;;;;;;;5094334;28;20388;-64
2021/12/12 05:48:41;;;;;;;22.13;8.38;;;;;;;;;;5094324;28;20020;-64
2021/12/12 05:51:07;;;;;;;17.50;7.25;;;;;;;;;;5075990;28;20396;-65
2021/12/12 05:53:33;;;;;;;21.60;7.60;;;;;;;;;;5093422;28;20028;-64
2021/12/12 05:56:00;;;;;;;17.63;7.78;;;;;;;;;;5094232;28;20039;-64
2021/12/12 05:58:26;;;;;;;16.95;6.93;;;;;;;;;;5075869;28;20028;-64
2021/12/12 06:00:57;;;;;;;24.10;8.55;;;;;;;;;;5094056;28;20027;-64
2021/12/12 06:03:26;;;;;;;23.48;8.15;;;;;;;;;;5093176;28;20024;-64
2021/12/12 06:05:53;;;;;;;20.80;8.25;;;;;;;;;;5075841;28;20055;-64
2021/12/12 06:08:19;;;;;;;20.33;7.70;;;;;;;;;;5094067;28;20488;-64
2021/12/12 06:10:48;;;;;;;19.42;7.20;;;;;;;;;;5075739;28;20085;-64
2021/12/12 06:13:16;;;;;;;18.58;7.43;;;;;;;;;;5075028;28;20032;-64
2021/12/12 06:15:45;;;;;;;18.58;7.40;;;;;;;;;;5093964;28;20035;-64
2021/12/12 06:18:12;;;;;;;20.08;8.35;;;;;;;;;;5075631;28;20106;-64
2021/12/12 06:20:38;;;;;;;21.83;8.75;;;;;;;;;;5093559;28;20024;-64
2021/12/12 06:23:04;;;;;;;20.42;9.35;;;;;;;;;;5092795;28;20023;-65
2021/12/12 06:25:30;;;;;;;18.52;8.38;;;;;;;;;;5093514;28;20024;-63
2021/12/12 06:27:56;;;;;;;19.50;8.35;;;;;;;;;;5093642;28;20532;-64
2021/12/12 06:30:24;;;;;;;18.67;9.32;;;;;;;;;;5073046;28;20377;-64
2021/12/12 06:32:51;;;;;;;22.70;7.82;;;;;;;;;;5092292;28;20024;-64
2021/12/12 06:35:17;;;;;;;20.63;7.95;;;;;;;;;;5093195;28;20024;-64
2021/12/12 06:37:43;;;;;;;17.52;8.20;;;;;;;;;;5093076;28;20032;-63
2021/12/12 06:40:11;;;;;;;21.27;8.82;;;;;;;;;;5075505;28;20032;-64
2021/12/12 06:42:38;;;;;;;23.38;9.20;;;;;;;;;;5072216;28;20536;-64
2021/12/12 06:45:05;;;;;;;22.23;8.50;;;;;;;;;;5054863;28;20025;-64
2021/12/12 06:47:31;;;;;;;22.55;10.20;;;;;;;;;;5062489;28;20032;-63
2021/12/12 06:49:59;;;;;;;24.15;11.10;;;;;;;;;;5093213;28;20125;-64
2021/12/12 06:52:25;;;;;;;21.67;10.30;;;;;;;;;;5092225;28;20024;-64
2021/12/12 06:54:52;;;;;;;17.42;9.23;;;;;;;;;;5074893;28;20034;-64
2021/12/12 06:57:18;;;;;;;22.67;9.50;;;;;;;;;;5075126;28;20020;-64
2021/12/12 06:59:45;;;;;;;23.15;12.50;;;;;;;;;;5074689;28;20438;-65
2021/12/12 07:02:12;;;;;;;20.58;12.32;;;;;;;;;;5092123;28;20020;-64
2021/12/12 07:04:39;;;;;;;26.15;15.07;;;;;;;;;;5084708;28;20020;-64
2021/12/12 07:07:06;;;;;;;24.00;18.35;;;;;;;;;;5072479;28;20081;-64
2021/12/12 07:09:35;;;;;;;21.40;17.38;;;;;;;;;;5054488;28;20085;-64
2021/12/12 07:12:04;;;;;;;29.02;21.95;;;;;;;;;;5071704;28;20384;-64
2021/12/12 07:14:31;;;;;;;26.50;20.52;;;;;;;;;;5054723;28;20051;-64
2021/12/12 07:16:57;;;;;;;28.48;24.35;;;;;;;;;;5054535;28;20447;-64
2021/12/12 07:19:26;;;;;;;26.98;23.25;;;;;;;;;;5073817;28;20392;-64
2021/12/12 07:21:53;;;;;;;28.83;25.17;;;;;;;;;;5054150;28;20031;-64
2021/12/12 07:24:19;;;;;;;25.75;23.05;;;;;;;;;;5072439;28;20389;-64
2021/12/12 07:26:45;;;;;;;29.20;24.20;;;;;;;;;;5072347;28;20404;-65
2021/12/12 07:29:12;;;;;;;30.77;26.05;;;;;;;;;;5072073;28;20032;-64
2021/12/12 07:31:39;;;;;;;26.75;23.95;;;;;;;;;;5087537;28;20020;-65
2021/12/12 07:34:06;;;;;;;28.90;26.00;;;;;;;;;;5073991;28;20032;-65
2021/12/12 07:36:34;;;;;;;28.10;25.20;;;;;;;;;;5091159;28;20024;-65
2021/12/12 07:39:02;;;;;;;26.73;23.90;;;;;;;;;;5074173;28;20391;-64
2021/12/12 07:41:29;;;;;;;27.95;24.10;;;;;;;;;;5073953;28;20020;-64
2021/12/12 07:43:56;;;;;;;31.15;25.50;;;;;;;;;;5073676;28;20042;-65
2021/12/12 07:46:23;;;;;;;29.80;25.02;;;;;;;;;;5074307;28;20051;-65
2021/12/12 07:48:49;;;;;;;28.75;24.88;;;;;;;;;;5092074;28;20024;-65
2021/12/12 07:51:16;;;;;;;29.98;26.05;;;;;;;;;;5074005;28;20034;-65
2021/12/12 07:53:43;;;;;;;26.98;24.13;;;;;;;;;;5073354;28;20017;-64
2021/12/12 07:56:09;;;;;;;25.73;23.08;;;;;;;;;;5074447;28;20021;-64
2021/12/12 07:58:35;;;;;;;28.27;24.02;;;;;;;;;;5096212;28;20495;-64
2021/12/12 08:01:02;;;;;;;27.48;24.60;;;;;;;;;;5096326;28;20020;-65
2021/12/12 08:03:30;;;;;;;28.73;25.63;;;;;;;;;;5077493;28;20031;-65
2021/12/12 08:05:59;;;;;;;27.55;24.75;;;;;;;;;;5078022;28;20027;-66
2021/12/12 08:08:28;;;;;;;32.15;25.95;;;;;;;;;;5096223;28;20031;-65
2021/12/12 08:10:54;;;;;;;30.23;25.52;;;;;;;;;;5096162;28;20154;-65
2021/12/12 08:13:21;;;;;;;27.77;25.08;;;;;;;;;;5095414;28;20028;-64
2021/12/12 08:15:47;;;;;;;27.75;24.45;;;;;;;;;;5077701;28;20392;-65
2021/12/12 08:18:15;;;;;;;27.52;24.85;;;;;;;;;;5096134;28;20020;-64
2021/12/12 08:20:43;;;;;;;31.42;25.10;;;;;;;;;;5077879;28;20052;-63
2021/12/12 08:23:10;;;;;;;27.63;24.67;;;;;;;;;;5095095;28;20095;-64
2021/12/12 08:25:36;;;;;;;30.52;26.88;;;;;;;;;;5095666;28;20429;-65
2021/12/12 08:28:05;;;;;;;29.30;25.95;;;1.80;99.90;;;;;;5095911;28;20071;-65
2021/12/12 08:30:32;;;;;;;26.70;23.88;;;;;;;;;;5078109;28;20028;-65
2021/12/12 08:32:59;;;;;;;30.25;26.92;;;;;;;;;;5095554;28;20024;-66
2021/12/12 08:35:27;;;;;;;27.02;23.88;;;;;;;;;;5096354;28;20024;-65
2021/12/12 08:37:53;;;;;;;;;;;;;;;;;;5077769;28;20032;-66
2021/12/12 08:40:21;;;;;;;31.00;27.00;;;;;;;;;;5077309;28;20004;-66
2021/12/12 08:42:47;;;;;;;26.27;23.77;;;;;;;;;;5076634;28;20035;-66
2021/12/12 08:45:15;;;;;;;31.55;24.30;;;;;;;;;;5077281;28;20127;-66
2021/12/12 08:47:41;;;;;;;26.27;23.50;;;;;;;;;;5077265;28;20028;-67
2021/12/12 08:50:09;;;;;;;29.30;26.02;;;;;;;;;;5095619;28;20464;-65
2021/12/12 08:52:39;;;;;;;28.05;24.67;;;5.10;99.90;;;;;;5076226;28;20028;-66
2021/12/12 08:55:15;;;;;;;25.27;22.60;;;5.40;99.90;;;;;;5077035;28;20031;-66
2021/12/12 08:57:52;;;;;;;27.52;24.55;;;;;;;;;;5095216;28;20024;-66
2021/12/12 09:00:21;;;;;;;26.20;22.52;;;;;;;;;;5077019;28;20027;-67
2021/12/12 09:02:48;;;;;;;27.45;24.52;;;;;;;;;;5094301;28;20491;-66
2021/12/12 09:05:17;;;;;;;27.33;23.23;;;;;;;;;;5076862;28;20021;-67
2021/12/12 09:07:44;;;;;;;24.35;21.80;;;;;;;;;;5094995;28;20047;-67
2021/12/12 09:10:13;;;;;;;27.55;24.15;;;;;;;;;;5094957;28;20032;-66
2021/12/12 09:12:42;;;;;;;24.85;22.02;;;;;;;;;;5076188;28;20024;-66
2021/12/12 09:15:37;;;;;;;23.88;21.33;;;;;;;;;;5094729;28;20028;-65
2021/12/12 09:18:06;;;;;;;26.20;23.42;;;;;;;;;;5073028;28;20123;-66
2021/12/12 09:20:36;;;;;;;28.65;25.55;;;;;;;;;;5094677;28;20024;-66
2021/12/12 09:23:08;;;;;;;37.88;26.98;;;;;;;;;;5075803;28;20504;-67
2021/12/12 09:25:41;;;;;;;26.85;23.50;;;;;;;;;;5094843;28;20044;-67
2021/12/12 09:28:33;;;;;;;29.35;26.35;;;;;;;;;;5094915;28;20096;-71
2021/12/12 09:31:08;;;;;;;30.17;27.02;;;;;;;;;;5071889;28;20042;-69
2021/12/12 09:33:49;;;;;;;29.08;25.98;;;;;;;;;;5094143;28;20016;-70
2021/12/12 09:36:18;;;;;;;29.10;26.10;;;;;;;;;;5094803;28;20024;-69
2021/12/12 09:38:44;;;;;;;;;;;;;;;;;;5095375;28;20137;-70
2021/12/12 09:41:30;;;;;;;26.52;23.95;;;;;;;;;;5076667;28;19951;-70
2021/12/12 09:44:14;;;;;;;27.27;24.52;;;;;;;;;;5076907;28;20066;-70
2021/12/12 09:47:26;;;;;;;29.85;24.83;;;5.40;99.90;;;;;;5094680;28;20028;-69
2021/12/12 09:53:21;;;;;;;27.63;25.00;;;6.10;99.90;;;;;;5093407;28;20054;-70
2021/12/12 09:56:28;;;;;;;32.58;29.58;;;6.30;99.90;;;;;;5075822;28;20025;-68
2021/12/12 09:58:54;;;;;;;34.87;31.43;;;;;;;;;;5064663;28;20051;-69
2021/12/12 10:01:26;;;;;;;33.45;30.25;;;;;;;;;;5093882;28;20020;-69
2021/12/12 10:04:03;;;;;;;30.83;28.00;;;;;;;;;;5074879;28;20544;-67
2021/12/12 10:06:47;;;;;;;29.73;26.73;;;;;;;;;;4738174;28;10000135;-69
2021/12/12 10:09:21;;;;;;;33.90;30.52;;;;;;;;;;5090972;28;20119;-70
2021/12/12 10:11:50;;;;;;;26.58;23.77;;;;;;;;;;5089861;28;20034;-67
2021/12/12 10:14:18;;;;;;;27.27;24.48;;;;;;;;;;5091086;28;20024;-69
2021/12/12 10:16:46;;;;;;;;;;;;;;;;;;5073485;28;20498;-69
2021/12/12 10:19:17;;;;;;;30.92;27.65;;;;;;;;;;5090064;28;20390;-72
2021/12/12 10:21:55;;;;;;;28.58;25.88;;;;;;;;;;5092705;28;20646;-68
2021/12/12 10:24:30;;;;;;;27.25;24.55;;;;;;;;;;5093178;28;20028;-67
2021/12/12 10:27:00;;;;;;;27.02;24.33;;;;;;;;;;5075243;28;20055;-68
2021/12/12 10:29:40;;;;;;;30.45;27.55;;;;;;;;;;5093498;28;20020;-67
2021/12/12 10:32:19;;;;;;;28.38;25.45;;;;;;;;;;5065409;28;20039;-67
2021/12/12 10:34:48;;;;;;;31.52;28.33;;;;;;;;;;5084859;28;20151;-68
2021/12/12 10:37:33;;;;;;;31.02;28.05;;;;;;;;;;5092661;28;20562;-68
2021/12/12 10:40:03;;;;;;;29.80;27.00;;;;;;;;;;5093034;28;20050;-66
2021/12/12 10:42:37;;;;;;;29.52;26.42;;;;;;;;;;5092175;28;20070;-67
2021/12/12 10:45:06;;;;;;;26.13;23.20;;;;;;;;;;5093196;28;20013;-67
2021/12/12 10:47:32;;;;;;;;;;;;;;;;;;5075168;28;20046;-66
2021/12/12 10:50:10;;;;;;;25.58;21.40;;;;;;;;;;5092882;28;20427;-66
2021/12/12 10:52:55;;;;;;;23.33;18.95;;;;;;;;;;5092361;28;20106;-66
2021/12/12 10:55:25;;;;;;;25.52;21.08;;;;;;;;;;5092808;28;20024;-67
2021/12/12 10:58:00;;;;;;;22.63;19.58;;;;;;;;;;5092734;28;20024;-66
2021/12/12 11:00:34;;;;;;;24.17;19.70;;;;;;;;;;5074666;28;20044;-66
2021/12/12 11:03:01;;;;;;;24.88;21.08;;;;;;;;;;5073951;28;20020;-66
2021/12/12 11:05:30;;;;;;;23.40;19.98;;;;;;;;;;5092883;28;20020;-65
2021/12/12 11:08:04;;;;;;;26.52;20.70;;;;;;;;;;5074908;28;20031;-67
2021/12/12 11:10:34;;;;;;;25.10;20.63;;;;;;;;;;5092858;28;20356;-67
2021/12/12 11:13:08;;;;;;;25.67;20.58;;;;;;;;;;5091862;28;20091;-66
2021/12/12 11:15:34;;;;;;;23.67;19.95;;;;;;;;;;5092642;28;20031;-67
2021/12/12 11:18:05;;;;;;;23.90;20.98;;;;;;;;;;5092589;28;20028;-67
2021/12/12 11:20:43;;;;;;;25.83;22.05;;;;;;;;;;5092295;28;20364;-67
2021/12/12 11:23:13;;;;;;;26.55;20.75;;;;;;;;;;5073516;28;20024;-66
2021/12/12 11:25:39;;;;;;;25.23;21.10;;;;;;;;;;5092707;28;20024;-68
2021/12/12 11:28:32;;;;;;;23.80;19.98;;;;;;;;;;5092491;28;20544;-66
2021/12/12 11:31:18;;;;;;;26.58;21.52;;;;;;;;;;5069678;28;20035;-66
2021/12/12 11:33:46;;;;;;;28.23;23.25;;;;;;;;;;5091876;28;20438;-67
2021/12/12 11:36:14;;;;;;;24.73;20.42;;;;;;;;;;5074148;28;20062;-67
2021/12/12 11:38:46;;;;;;;22.38;17.98;;;;;;;;;;5074069;28;20024;-67
2021/12/12 11:41:12;;;;;;;25.08;19.95;;;;;;;;;;5091973;28;20437;-67
2021/12/12 11:43:38;;;;;;;26.15;21.52;;;;;;;;;;5091472;28;20061;-68
2021/12/12 11:46:09;;;;;;;25.27;22.02;;;;;;;;;;5092042;28;20484;-67
2021/12/12 11:48:50;;;;;;;26.85;23.10;;;;;;;;;;5092014;28;20536;-67
2021/12/12 11:51:25;;;;;;;27.13;22.27;;;;;;;;;;5073898;28;20074;-67
2021/12/12 11:53:57;;;;;;;25.52;21.50;;;;;;;;;;5073284;28;20024;-67
2021/12/12 11:56:32;;;;;;;24.70;20.50;;;;;;;;;;5091577;28;20036;-67
2021/12/12 11:59:00;;;;;;;28.08;24.08;;;;;;;;;;5092239;28;20158;-67
2021/12/12 12:01:30;;;;;;;28.42;23.75;;;;;;;;;;5091839;28;20038;-66
2021/12/12 12:04:11;;;;;;;26.55;22.63;;;;;;;;;;5092370;28;20020;-67
2021/12/12 12:06:56;;;;;;;28.33;23.55;;;;;;;;;;5092420;28;20016;-67
2021/12/12 12:09:33;;;;;;;25.95;22.48;;;;;;;;;;5074001;28;20028;-66
2021/12/12 12:12:19;;;;;;;29.42;22.65;;;;;;;;;;5073099;28;20062;-67
2021/12/12 12:14:52;;;;;;;30.23;24.52;;;;;;;;;;5091564;28;20480;-66
2021/12/12 12:17:33;;;;;;;34.35;26.20;;;;;;;;;;5091709;28;20020;-67
2021/12/12 12:20:05;;;;;;;33.03;28.50;;;;;;;;;;5073491;28;20047;-67
2021/12/12 12:22:40;;;;;;;33.05;28.10;;;;;;;;;;5091098;28;20475;-67
2021/12/12 12:25:21;;;;;;;34.92;27.63;;;;;;;;;;5092446;28;20021;-66
2021/12/12 12:27:51;;;;;;;32.55;25.90;;;;;;;;;;5074274;28;20035;-67
2021/12/12 12:30:36;;;;;;;34.22;27.58;;;;;;;;;;5091541;28;20060;-67
2021/12/12 12:33:14;;;;;;;35.90;28.15;;;;;;;;;;5072716;28;20028;-66
2021/12/12 12:35:59;;;;;;;36.80;28.65;;;;;;;;;;5091630;28;20050;-66
2021/12/12 12:38:45;;;;;;;33.35;26.17;;;;;;;;;;5091573;28;20032;-68
2021/12/12 12:41:30;;;;;;;31.55;25.15;;;;;;;;;;5091854;28;20108;-67
2021/12/12 12:44:33;;;;;;;33.90;27.90;;;6.20;99.90;;;;;;5094288;28;20024;-68
2021/12/12 12:47:36;;;;;;;27.63;24.27;;;7.30;99.90;;;;;;5077211;28;20032;-66
2021/12/12 12:50:43;;;;;;;37.33;31.77;;;7.30;99.90;;;;;;5077451;28;20051;-67
2021/12/12 12:53:40;;;;;;;33.95;29.65;;;7.30;99.90;;;;;;5066404;28;20036;-65
2021/12/12 12:56:08;;;;;;;36.33;31.08;;;7.30;99.90;;;;;;5095394;28;20141;-67
2021/12/12 12:58:46;;;;;;;35.30;27.38;;;;;;;;;;5077784;28;20553;-67
2021/12/12 13:01:31;;;;;;;33.72;29.70;;;;;;;;;;5095399;28;20020;-67
2021/12/12 13:04:14;;;;;;;37.28;28.58;;;;;;;;;;5094334;28;20066;-66
2021/12/12 13:07:01;;;;;;;34.03;28.27;;;;;;;;;;5076964;28;20638;-66
2021/12/12 13:09:33;;;;;;;37.92;29.30;;;;;;;;;;5076773;28;20036;-67
2021/12/12 13:12:20;;;;;;;33.13;26.77;;;;;;;;;;5075675;28;20043;-67
2021/12/12 13:15:05;;;;;;;35.43;29.10;;;;;;;;;;5094533;28;20479;-67
2021/12/12 13:17:53;;;;;;;35.53;27.42;;;;;;;;;;5094784;28;20024;-67
2021/12/12 13:20:46;;;;;;;32.92;27.92;;;;;;;;;;5076341;23;20103;-70
2021/12/12 13:23:12;;;;;;;35.67;25.90;;;;;;;;;;4352346;28;10000651;-68
2021/12/12 13:25:43;;;;;;;35.53;27.88;;;;;;;;;;5046474;28;20027;-69
2021/12/12 13:28:19;;;;;;;31.90;23.15;;;;;;;;;;5047453;28;20067;-69
2021/12/12 13:31:01;;;;;;;35.78;27.13;;;;;;;;;;5049893;28;20039;-69
2021/12/12 13:33:54;;;;;;;33.78;25.88;;;;;;;;;;5050390;28;20111;-68
2021/12/12 13:36:33;;;;;;;41.03;29.23;;;;;;;;;;5046357;28;20628;-67
2021/12/12 13:39:08;;;;;;;38.10;28.17;;;;;;;;;;5049553;28;20100;-68
2021/12/12 13:41:47;;;;;;;33.60;28.13;;;;;;;;;;5049112;28;20036;-68
2021/12/12 13:44:32;;;;;;;31.30;26.35;;;;;;;;;;5048964;28;20029;-68
2021/12/12 13:47:12;;;;;;;35.55;27.77;;;;;;;;;;5048806;28;20069;-69
2021/12/12 13:49:57;;;;;;;36.67;26.63;;;;;;;;;;5050506;28;20025;-68
2021/12/12 13:52:31;;;;;;;32.38;27.42;;;;;;;;;;5048577;28;20072;-70
2021/12/12 13:55:03;;;;;;;32.33;25.58;;;;;;;;;;5048481;28;20125;-68
2021/12/12 13:57:37;;;;;;;37.22;28.30;;;;;;;;;;5050700;28;20087;-69
2021/12/12 14:00:12;;;;;;;37.95;27.80;;;;;;;;;;5049208;28;20021;-68
2021/12/12 14:02:40;;;;;;;34.50;28.02;;;;;;;;;;5049810;28;20029;-69
2021/12/12 14:05:06;;;;;;;37.47;28.38;;;;;;;;;;5049731;28;20017;-69
2021/12/12 14:07:40;;;;;;;28.02;23.15;;;;;;;;;;5049179;28;20039;-69
2021/12/12 14:10:11;;;;;;;34.10;25.30;;;;;;;;;;5050405;28;20116;-68
2021/12/12 14:12:37;;;;;;;34.25;27.23;;;;;;;;;;5049559;28;20505;-69
2021/12/12 14:15:26;;;;;;;32.30;25.27;;;7.20;99.90;;;;;;5048670;28;20033;-69
2021/12/12 14:17:53;;;;;;;32.85;27.52;;;7.60;99.90;;;;;;5042775;28;20024;-69
2021/12/12 14:20:26;;;;;;;34.45;26.73;;;7.60;99.90;;;;;;5041188;28;20032;-69
2021/12/12 14:22:54;;;;;;;33.20;27.70;;;7.60;99.90;;;;;;5037150;28;20596;-69
2021/12/12 14:25:21;;;;;;;35.35;28.02;;;7.60;99.90;;;;;;5038215;28;20500;-69
2021/12/12 14:27:52;;;;;;;37.35;30.02;;;7.60;99.90;;;;;;5046165;28;20489;-69
2021/12/12 14:30:21;;;;;;;36.75;28.95;;;7.60;99.90;;;;;;5049827;28;20520;-70
2021/12/12 14:32:54;;;;;;;36.33;29.08;;;7.60;99.90;;;;;;5049149;28;20083;-69
2021/12/12 14:35:25;;;;;;;36.95;29.73;;;7.70;99.90;;;;;;5049388;28;20040;-69
2021/12/12 14:37:53;;;;;;;37.28;28.73;;;7.60;99.90;;;;;;5050655;28;20081;-68
2021/12/12 14:40:26;;;;;;;34.05;28.67;;;7.60;99.90;;;;;;5067490;28;20444;-69
2021/12/12 14:43:04;;;;;;;35.92;29.38;;;7.70;99.90;;;;;;5051640;28;20021;-69
2021/12/12 14:45:33;;;;;;;41.08;28.80;;;7.70;99.90;;;;;;5067388;28;20111;-67
2021/12/12 14:48:03;;;;;;;34.53;29.20;;;7.70;99.90;;;;;;5051840;28;20029;-69
2021/12/12 14:50:50;;;;;;;34.65;29.10;;;7.70;99.90;;;;;;5052129;28;20033;-70
2021/12/12 14:53:20;;;;;;;38.40;30.50;;;7.80;99.90;;;;;;5051561;28;20095;-69
2021/12/12 14:56:06;;;;;;;36.95;29.10;;;7.70;99.90;;;;;;5051740;28;20283;-70
2021/12/12 14:58:56;;;;;;;38.17;30.33;;;7.80;99.90;;;;;;5066964;28;20024;-68